Time;durP1;ratioP1;P1;durP2;ratioP2;P2;SDS_P1;SDS_P2;PMS_P1;PMS_P2;Temp;Humidity;BMP_temperature;BMP_pressure;BME280_temperature;BME280_humidity;BME280_pressure;Samples;Min_cycle;Max_cycle;Signal;HPM_P1;HPM_P2
2022/11/11 00:04:56;;;;;;;;;;;;;;;;;;10504831;28;20036;-75
2022/11/11 00:09:59;;;;;;;2.80;1.63;;;;;;;;;;10507998;28;19932;-76
2022/11/11 00:15:03;;;;;;;5.80;2.35;;;;;;;;;;10496177;28;20043;-75
2022/11/11 00:25:29;;;;;;;4.30;1.88;;;;;;;;;;10512814;28;20048;-75
2022/11/11 00:30:33;;;;;;;7.43;3.00;;;;;;;;;;10489931;28;20529;-75
2022/11/11 00:35:54;;;;;;;5.05;2.80;;;;;;;;;;10506032;28;20509;-76
2022/11/11 00:40:57;;;;;;;2.70;1.48;;;;;;;;;;10508950;28;20039;-76
2022/11/11 00:51:18;;;;;;;5.70;2.72;;;;;;;;;;10484863;28;20043;-75
2022/11/11 00:56:21;;;;;;;4.32;2.65;;;;;;;;;;10507944;28;20469;-76
2022/11/11 01:01:25;;;;;;;3.97;1.90;;;;;;;;;;10507349;28;20050;-75
2022/11/11 01:06:28;;;;;;;5.47;2.38;;;;;;;;;;10509713;28;20097;-75
2022/11/11 01:11:30;;;;;;;4.32;2.25;;;;;;;;;;10508239;28;20497;-76
2022/11/11 01:16:35;;;;;;;5.45;2.90;;;;;;;;;;10507290;28;20131;-74
2022/11/11 01:21:37;;;;;;;5.53;2.70;;;;;;;;;;10504383;28;20042;-76
2022/11/11 01:26:40;;;;;;;6.20;3.25;;;;;;;;;;10506287;28;20042;-73
2022/11/11 01:31:45;;;;;;;5.50;2.72;;;;;;;;;;10505727;28;20077;-77
2022/11/11 01:36:47;;;;;;;;;;;;;;;;;;10511246;28;20481;-77
2022/11/11 01:41:50;;;;;;;5.75;3.22;;;;;;;;;;10509991;28;20323;-75
2022/11/11 01:46:58;;;;;;;8.15;3.50;;;;;;;;;;10514616;28;20044;-75
2022/11/11 01:52:13;;;;;;;7.53;3.25;;;;;;;;;;10523961;28;20047;-74
2022/11/11 01:57:18;;;;;;;6.20;3.25;;;;;;;;;;10519072;28;20051;-76
2022/11/11 02:02:26;;;;;;;6.28;3.30;;;;;;;;;;10513629;28;20044;-76
2022/11/11 02:07:29;;;;;;;8.85;3.40;;;;;;;;;;10513345;28;20117;-77
2022/11/11 02:17:54;;;;;;;6.18;2.72;;;;;;;;;;10513721;28;20854;-76
2022/11/11 02:23:00;;;;;;;7.60;3.22;;;;;;;;;;10514992;28;20562;-76
2022/11/11 02:28:06;;;;;;;6.75;3.08;;;;;;;;;;10515017;28;20047;-76
2022/11/11 02:33:10;;;;;;;7.43;2.35;;;;;;;;;;10512772;28;20469;-75
2022/11/11 02:38:14;;;;;;;6.87;2.93;;;;;;;;;;10514875;28;20071;-76
2022/11/11 02:43:18;;;;;;;7.18;3.35;;;;;;;;;;10511977;28;20041;-75
2022/11/11 02:48:21;;;;;;;6.95;3.15;;;;;;;;;;10512531;28;20665;-75
2022/11/11 02:53:24;;;;;;;7.75;3.55;;;;;;;;;;10510929;28;20054;-75
2022/11/11 02:58:29;;;;;;;6.07;3.07;;;;;;;;;;10518036;28;20040;-75
2022/11/11 03:03:32;;;;;;;;;;;;;;;;;;10512273;28;20044;-74
2022/11/11 03:08:34;;;;;;;7.93;3.13;;;;;;;;;;10510705;28;20007;-75
2022/11/11 03:13:39;;;;;;;5.22;2.67;;;;;;;;;;10494954;28;20043;-75
2022/11/11 03:18:41;;;;;;;8.15;3.45;;;;;;;;;;10514695;28;20040;-74
2022/11/11 03:23:44;;;;;;;6.43;2.90;;;;;;;;;;10512587;28;20044;-74
2022/11/11 03:28:49;;;;;;;4.90;2.35;;;;;;;;;;10511935;28;20142;-75
2022/11/11 03:33:52;;;;;;;3.45;1.70;;;;;;;;;;10509639;28;20032;-75
2022/11/11 03:38:55;;;;;;;3.30;1.48;;;;;;;;;;10512519;28;20101;-75
2022/11/11 03:43:59;;;;;;;2.13;1.23;;;;;;;;;;10494585;28;20085;-76
2022/11/11 03:49:03;;;;;;;4.70;2.10;;;;;;;;;;10507578;28;20052;-76
2022/11/11 03:54:05;;;;;;;4.10;1.92;;;;;;;;;;10508133;28;20129;-76
2022/11/11 03:59:10;;;;;;;3.88;1.75;;;;;;;;;;10511623;28;20044;-74
2022/11/11 04:25:52;;;;;;;3.85;1.98;;;;;;;;;;10507811;28;20400;-76
2022/11/11 04:30:56;;;;;;;2.58;1.83;;;;;;;;;;10506658;28;20040;-77
2022/11/11 04:35:59;;;;;;;;;;;;;;;;;;10506659;28;20409;-77
2022/11/11 04:41:07;;;;;;;3.50;1.23;;;;;;;;;;10504171;28;19927;-77
2022/11/11 04:46:11;;;;;;;3.70;1.73;;;;;;;;;;10507112;28;20098;-75
2022/11/11 04:51:14;;;;;;;2.80;1.73;;;;;;;;;;10504912;28;20101;-74
2022/11/11 05:12:19;;;;;;;3.47;2.15;;;;;;;;;;10502607;28;20362;-76
2022/11/11 05:22:53;;;;;;;5.93;1.65;;;;;;;;;;10516014;28;20408;-76
2022/11/11 05:27:56;;;;;;;3.22;1.70;;;;;;;;;;10514534;28;20500;-77
2022/11/11 05:33:02;;;;;;;5.03;2.25;;;;;;;;;;10497401;28;20043;-76
2022/11/11 05:38:21;;;;;;;3.38;2.00;;;;;;;;;;10514024;28;20168;-76
2022/11/11 05:43:24;;;;;;;3.58;1.70;;;;;;;;;;10513552;28;20048;-76
2022/11/11 05:48:29;;;;;;;3.60;1.87;;;;;;;;;;10513754;28;20107;-76
2022/11/11 05:53:32;;;;;;;5.05;2.20;;;;;;;;;;10517545;28;20131;-77
2022/11/11 05:58:35;;;;;;;4.53;1.90;;;;;;;;;;10498757;28;20046;-76
2022/11/11 06:03:39;;;;;;;3.05;1.77;;;;;;;;;;10511495;28;20055;-78
2022/11/11 06:08:42;;;;;;;;;;;;;;;;;;10517288;28;20036;-75
2022/11/11 06:13:45;;;;;;;3.20;1.67;;;;;;;;;;10514450;28;19923;-75
2022/11/11 06:18:49;;;;;;;4.15;1.65;;;;;;;;;;10514839;28;20489;-76
2022/11/11 06:23:52;;;;;;;;;;;;;;;;;;10514899;28;20143;-77
2022/11/11 06:28:56;;;;;;;4.57;1.92;;;;;;;;;;10510628;28;20376;-79
2022/11/11 06:33:59;;;;;;;;;;;;;;;;;;10515931;28;20041;-77
2022/11/11 06:39:03;;;;;;;4.88;2.10;;;;;;;;;;10514087;28;20665;-77
2022/11/11 06:44:07;;;;;;;4.53;2.00;;;;;;;;;;10513648;28;20335;-77
2022/11/11 06:49:09;;;;;;;4.30;2.17;;;;;;;;;;10513080;28;20039;-77
2022/11/11 06:54:14;;;;;;;3.88;1.88;;;;;;;;;;10526698;27;20033;-77
2022/11/11 06:59:16;;;;;;;4.35;2.08;;;;;;;;;;10513317;28;20338;-77
2022/11/11 07:04:19;;;;;;;5.68;2.72;;;;;;;;;;10519470;28;20036;-77
2022/11/11 07:09:24;;;;;;;5.22;2.90;;;;;;;;;;10509286;28;20122;-77
2022/11/11 07:14:27;;;;;;;4.45;2.20;;;;;;;;;;10506943;28;20041;-77
2022/11/11 07:19:29;;;;;;;5.35;2.78;;;;;;;;;;10513226;28;20038;-77
2022/11/11 07:24:34;;;;;;;7.28;2.60;;;;;;;;;;10507321;28;20401;-76
2022/11/11 07:29:36;;;;;;;7.03;2.90;;;;;;;;;;10506919;28;20040;-76
2022/11/11 07:34:39;;;;;;;7.82;3.03;;;;;;;;;;10505170;28;20509;-76
2022/11/11 07:39:43;;;;;;;6.28;2.80;;;;;;;;;;10500599;28;20440;-78
2022/11/11 07:44:46;;;;;;;5.53;2.55;;;;;;;;;;10499928;28;20071;-77
2022/11/11 07:49:51;;;;;;;5.85;2.33;;;;;;;;;;10501863;28;20733;-76
2022/11/11 07:54:54;;;;;;;8.15;2.30;;;;;;;;;;10509734;28;20107;-77
2022/11/11 08:00:04;;;;;;;5.78;2.40;;;;;;;;;;10499584;28;20532;-77
2022/11/11 08:05:09;;;;;;;4.95;2.50;;;;;;;;;;10497033;28;20547;-76
2022/11/11 08:10:21;;;;;;;6.68;2.72;;;;;;;;;;10499252;28;20044;-77
2022/11/11 08:15:23;;;;;;;6.00;2.33;;;;;;;;;;10496942;28;20042;-77
2022/11/11 08:20:26;;;;;;;5.80;2.50;;;;;;;;;;10504015;28;20044;-76
2022/11/11 08:25:31;;;;;;;5.72;2.60;;;;;;;;;;10500511;28;20043;-78
2022/11/11 08:30:34;;;;;;;8.25;3.17;;;;;;;;;;10497081;28;20064;-77
2022/11/11 08:35:36;;;;;;;6.77;2.60;;;;;;;;;;10498674;28;20042;-77
2022/11/11 08:40:41;;;;;;;1.42;1.02;;;;;;;;;;10496504;28;20309;-79
2022/11/11 08:45:46;;;;;;;8.13;2.97;;;;;;;;;;10495717;28;20461;-78
2022/11/11 08:50:51;;;;;;;10.80;4.97;;;;;;;;;;10503057;28;20047;-78
2022/11/11 08:55:56;;;;;;;9.65;4.68;;;;;;;;;;10502146;28;20139;-77
2022/11/11 09:01:00;;;;;;;9.73;3.63;;;;;;;;;;10497552;28;20128;-78
2022/11/11 09:06:03;;;;;;;4.80;2.53;;;;;;;;;;10502012;28;20066;-77
2022/11/11 09:11:07;;;;;;;4.03;2.03;;;;;;;;;;10499326;28;20063;-76
2022/11/11 09:16:10;;;;;;;1.83;1.65;;;;;;;;;;10496621;28;20048;-77
2022/11/11 09:21:13;;;;;;;4.55;2.42;;;;;;;;;;10498992;28;20260;-77
2022/11/11 09:26:17;;;;;;;5.35;2.03;;;;;;;;;;10497015;28;20340;-77
2022/11/11 09:31:21;;;;;;;5.25;2.30;;;;;;;;;;10496840;28;20406;-77
2022/11/11 09:36:44;;;;;;;349.20;112.72;;;;;;;;;;10496328;28;20546;-77
2022/11/11 09:41:54;;;;;;;21.95;7.22;;;;;;;;;;10493884;28;20037;-77
2022/11/11 09:47:04;;;;;;;31.25;11.38;;;;;;;;;;10498814;28;20077;-78
2022/11/11 09:52:12;;;;;;;4.32;2.13;;;;;;;;;;10502992;28;20468;-79
2022/11/11 09:57:19;;;;;;;5.55;2.35;;;;;;;;;;10498898;28;20036;-78
2022/11/11 10:02:26;;;;;;;4.35;2.05;;;;;;;;;;10503069;28;20032;-78
2022/11/11 10:07:35;;;;;;;6.18;2.50;;;;;;;;;;10505119;28;20044;-78
2022/11/11 10:12:42;;;;;;;4.57;2.70;;;;;;;;;;10502584;28;20110;-78
2022/11/11 10:17:50;;;;;;;6.15;2.78;;;;;;;;;;10499085;28;20678;-77
2022/11/11 10:22:54;;;;;;;4.68;2.60;;;;;;;;;;10508044;28;20453;-77
2022/11/11 10:28:00;;;;;;;5.30;2.75;;;;;;;;;;10501536;28;20047;-77
2022/11/11 10:33:04;;;;;;;5.43;2.47;;;;;;;;;;10503300;28;20043;-77
2022/11/11 10:38:17;;;;;;;8.25;3.17;;;;;;;;;;10503460;28;20063;-76
2022/11/11 10:43:20;;;;;;;;;;;;;;;;;;10502031;28;20523;-77
2022/11/11 10:48:26;;;;;;;8.75;3.13;;;;;;;;;;10502535;28;20388;-78
2022/11/11 10:53:34;;;;;;;19.25;6.30;;;;;;;;;;10509434;28;20039;-77
2022/11/11 10:58:41;;;;;;;13.48;4.35;;;;;;;;;;10503521;28;20048;-77
2022/11/11 11:03:47;;;;;;;10.88;5.22;;;;;;;;;;10503435;28;20067;-79
2022/11/11 11:08:52;;;;;;;12.77;5.35;;;;;;;;;;10500787;28;20045;-78
2022/11/11 11:13:58;;;;;;;9.88;5.22;;;;;;;;;;10500285;28;20576;-77
2022/11/11 11:19:18;;;;;;;13.55;5.53;;;;;;;;;;10504476;28;20051;-77
2022/11/11 11:24:22;;;;;;;8.48;4.57;;;;;;;;;;10499255;28;20063;-79
2022/11/11 11:29:26;;;;;;;6.18;3.88;;;;;;;;;;10499672;28;20036;-76
2022/11/11 11:34:45;;;;;;;7.05;4.10;;;;;;;;;;10495115;28;21777;-78
2022/11/11 11:39:48;;;;;;;8.75;4.15;;;;;;;;;;10499147;28;20051;-77
2022/11/11 11:44:51;;;;;;;9.23;4.05;;;;;;;;;;10485042;28;20051;-78
2022/11/11 11:50:08;;;;;;;11.25;4.03;;;;;;;;;;10500450;28;20064;-77
2022/11/11 11:55:14;;;;;;;7.85;4.35;;;;;;;;;;10505457;28;20052;-76
2022/11/11 12:00:19;;;;;;;10.50;7.35;;;;;;;;;;10499774;28;20306;-77
2022/11/11 12:05:25;;;;;;;7.32;4.00;;;;;;;;;;10484280;28;20047;-76
2022/11/11 12:10:36;;;;;;;9.18;4.50;;;;;;;;;;10500492;28;20040;-77
2022/11/11 12:15:54;;;;;;;7.30;4.18;;;;;;;;;;10510547;28;20883;-78
2022/11/11 12:20:58;;;;;;;8.23;5.10;;;;;;;;;;10496998;28;20137;-77
2022/11/11 12:26:05;;;;;;;7.85;4.05;;;;;;;;;;10492354;28;20564;-78
2022/11/11 12:31:17;;;;;;;7.95;4.32;;;;;;;;;;10495174;28;20441;-77
2022/11/11 12:36:24;;;;;;;11.18;4.60;;;;;;;;;;10496876;28;20040;-78
2022/11/11 12:41:32;;;;;;;10.20;5.88;;;;;;;;;;10480751;28;20109;-78
2022/11/11 12:46:42;;;;;;;8.57;3.88;;;;;;;;;;10497191;28;20126;-78
2022/11/11 12:51:54;;;;;;;8.65;3.53;;;;;;;;;;10501730;28;20047;-78
2022/11/11 12:57:03;;;;;;;6.68;4.10;;;;;;;;;;10496327;28;20056;-78
2022/11/11 13:02:13;;;;;;;11.32;5.10;;;;;;;;;;10496048;28;20059;-78
2022/11/11 13:07:36;;;;;;;7.13;4.60;;;;;;;;;;10495397;28;20048;-77
2022/11/11 13:12:43;;;;;;;9.85;4.82;;;;;;;;;;10495726;28;20186;-79
2022/11/11 13:17:46;;;;;;;9.48;3.65;;;;;;;;;;10496445;28;20036;-77
2022/11/11 13:22:49;;;;;;;5.70;3.20;;;;;;;;;;10499874;28;20044;-78
2022/11/11 13:27:56;;;;;;;9.50;3.20;;;;;;;;;;10493519;28;20047;-78
2022/11/11 13:33:02;;;;;;;5.38;2.70;;;;;;;;;;10493666;28;20056;-77
2022/11/11 13:38:05;;;;;;;6.25;3.00;;;;;;;;;;10501057;28;20044;-78
2022/11/11 13:43:16;;;;;;;5.30;2.83;;;;;;;;;;10499938;28;20040;-77
2022/11/11 13:48:24;;;;;;;9.15;3.00;;;;;;;;;;10502685;28;20045;-77
2022/11/11 13:53:28;;;;;;;7.50;3.05;;;;;;;;;;10507430;28;20054;-76
2022/11/11 13:58:35;;;;;;;4.65;2.72;;;;;;;;;;10504057;28;20167;-77
2022/11/11 14:03:52;;;;;;;6.13;2.60;;;;;;;;;;10501340;28;20056;-78
2022/11/11 14:08:55;;;;;;;5.85;3.10;;;;;;;;;;10512713;28;20647;-77
2022/11/11 14:14:19;;;;;;;5.25;3.15;;;;;;;;;;10499934;28;20051;-77
2022/11/11 14:19:31;;;;;;;6.00;3.17;;;;;;;;;;10502622;28;20052;-77
2022/11/11 14:24:36;;;;;;;8.35;3.33;;;;;;;;;;10501180;28;20040;-77
2022/11/11 14:29:49;;;;;;;8.93;4.07;;;;;;;;;;10502781;28;20048;-77
2022/11/11 14:35:14;;;;;;;5.97;3.58;;;;;;;;;;10505522;28;20031;-78
2022/11/11 14:40:24;;;;;;;9.30;5.63;;;;;;;;;;10501089;28;20056;-77
2022/11/11 14:45:59;;;;;;;9.38;4.57;;;;;;;;;;10505999;28;20040;-77
2022/11/11 14:51:03;;;;;;;7.63;4.10;;;;;;;;;;10508367;28;20056;-79
2022/11/11 14:56:13;;;;;;;8.70;4.35;;;;;;;;;;10501250;28;20040;-77
2022/11/11 15:01:18;;;;;;;7.15;4.20;;;;;;;;;;10502918;28;20036;-78
2022/11/11 15:06:24;;;;;;;11.27;5.22;;;;;;;;;;10501516;28;20385;-76
2022/11/11 15:11:32;;;;;;;10.35;5.03;;;;;;;;;;10500083;28;21287;-77
2022/11/11 15:16:53;;;;;;;11.85;5.28;;;;;;;;;;10498312;28;20044;-77
2022/11/11 15:22:08;;;;;;;10.48;4.80;;;;;;;;;;10502615;28;20051;-77
2022/11/11 15:27:18;;;;;;;8.27;4.85;;;;;;;;;;10502116;28;20144;-78
2022/11/11 15:32:27;;;;;;;9.18;5.45;;;;;;;;;;10504628;28;20894;-77
2022/11/11 15:37:31;;;;;;;12.10;5.07;;;;;;;;;;10503071;28;20508;-77
2022/11/11 15:42:36;;;;;;;11.32;5.50;;;;;;;;;;10504108;28;20428;-76
2022/11/11 15:47:39;;;;;;;12.30;6.13;;;;;;;;;;10506696;28;20032;-76
2022/11/11 15:52:44;;;;;;;10.27;5.47;;;;;;;;;;10505301;28;20047;-77
2022/11/11 15:57:47;;;;;;;10.48;5.38;;;;;;;;;;10502822;28;20517;-77
2022/11/11 16:02:52;;;;;;;11.90;5.87;;;;;;;;;;10493707;28;20065;-76
2022/11/11 16:07:58;;;;;;;10.82;5.70;;;;;;;;;;10500481;28;20032;-77
2022/11/11 16:13:06;;;;;;;13.30;6.57;;;;;;;;;;10506113;28;20047;-78
2022/11/11 16:18:12;;;;;;;13.88;5.85;;;;;;;;;;10528477;28;20027;-78
2022/11/11 16:23:18;;;;;;;13.50;6.85;;;;;;;;;;10526733;28;20032;-76
2022/11/11 16:28:21;;;;;;;12.70;6.47;;;;;;;;;;10524497;28;20047;-78
2022/11/11 16:33:34;;;;;;;14.35;6.63;;;;;;;;;;10527430;28;20063;-76
2022/11/11 16:38:38;;;;;;;17.25;7.90;;;;;;;;;;10510460;28;20042;-77
2022/11/11 16:43:42;;;;;;;16.70;7.13;;;;;;;;;;10523376;28;20515;-76
2022/11/11 16:48:47;;;;;;;33.88;12.40;;;;;;;;;;10510141;28;20028;-77
2022/11/11 16:53:54;;;;;;;25.10;10.70;;;;;;;;;;10504275;28;20044;-78
2022/11/11 16:59:00;;;;;;;17.88;7.65;;;;;;;;;;10505736;28;20052;-76
2022/11/11 17:04:05;;;;;;;43.85;13.13;;;;;;;;;;10503411;28;20504;-77
2022/11/11 17:09:26;;;;;;;17.92;8.45;;;;;;;;;;10504583;28;20512;-76
2022/11/11 17:14:32;;;;;;;22.08;8.40;;;;;;;;;;10514904;28;20039;-76
2022/11/11 17:19:35;;;;;;;14.95;7.32;;;;;;;;;;10517866;28;20505;-77
2022/11/11 17:24:40;;;;;;;12.75;7.00;;;;;;;;;;10510130;28;20485;-79
2022/11/11 17:29:48;;;;;;;18.10;7.00;;;;;;;;;;10516732;28;20031;-76
2022/11/11 17:34:55;;;;;;;14.77;7.45;;;;;;;;;;10515301;28;20054;-78
2022/11/11 17:40:00;;;;;;;24.23;11.20;;;;;;;;;;10496938;28;20115;-76
2022/11/11 17:45:02;;;;;;;16.77;7.18;;;;;;;;;;10515096;28;20048;-76
2022/11/11 17:50:06;;;;;;;16.20;7.17;;;;;;;;;;10512303;28;20039;-77
2022/11/11 17:55:10;;;;;;;14.50;7.00;;;;;;;;;;10509564;28;20063;-76
2022/11/11 18:00:13;;;;;;;14.82;6.43;;;;;;;;;;10512731;28;20121;-75
2022/11/11 18:05:16;;;;;;;21.67;9.47;;;;;;;;;;10511866;28;20475;-77
2022/11/11 18:10:20;;;;;;;20.45;8.77;;;;;;;;;;10509189;28;20040;-76
2022/11/11 18:15:23;;;;;;;19.10;8.70;;;;;;;;;;10513971;28;20032;-77
2022/11/11 18:20:26;;;;;;;32.45;12.00;;;;;;;;;;10511418;28;20393;-75
2022/11/11 18:25:30;;;;;;;43.30;14.25;;;;;;;;;;10509267;28;20036;-76
2022/11/11 18:30:33;;;;;;;21.30;8.95;;;;;;;;;;10508816;28;20124;-76
2022/11/11 18:35:38;;;;;;;28.75;11.30;;;;;;;;;;10516435;28;20485;-76
2022/11/11 18:40:42;;;;;;;29.00;9.80;;;;;;;;;;10531094;28;20074;-76
2022/11/11 18:45:45;;;;;;;26.20;9.73;;;;;;;;;;10533460;28;20048;-76
2022/11/11 18:50:52;;;;;;;21.60;9.70;;;;;;;;;;10531408;28;20445;-78
2022/11/11 18:56:00;;;;;;;18.67;8.07;;;;;;;;;;10508466;28;20066;-77
2022/11/11 19:01:04;;;;;;;21.70;8.57;;;;;;;;;;10530667;28;20060;-76
2022/11/11 19:06:08;;;;;;;17.05;7.53;;;;;;;;;;10532118;28;20036;-77
2022/11/11 19:11:12;;;;;;;20.35;8.85;;;;;;;;;;10531882;28;20393;-77
2022/11/11 19:16:17;;;;;;;21.00;8.77;;;;;;;;;;10509515;28;20040;-76
2022/11/11 19:21:21;;;;;;;23.92;9.48;;;;;;;;;;10533808;28;20155;-77
2022/11/11 19:26:26;;;;;;;21.05;9.02;;;;;;;;;;10526689;28;20040;-77
2022/11/11 19:31:29;;;;;;;17.10;8.38;;;;;;;;;;10523796;28;20044;-76
2022/11/11 19:36:32;;;;;;;15.83;7.43;;;;;;;;;;10529122;28;20050;-77
2022/11/11 19:41:36;;;;;;;15.02;8.13;;;;;;;;;;10521938;28;20036;-77
2022/11/11 19:46:40;;;;;;;46.58;16.00;;;;;;;;;;10526058;28;20042;-78
2022/11/11 19:51:43;;;;;;;59.40;20.03;;;;;;;;;;10529978;28;20509;-77
2022/11/11 19:56:47;;;;;;;27.75;11.43;;;;;;;;;;10527343;28;20062;-77
2022/11/11 20:01:50;;;;;;;;;;;;;;;;;;10509950;28;20467;-77
2022/11/11 20:06:53;;;;;;;21.92;8.27;;;;;;;;;;10528148;28;19959;-76
2022/11/11 20:11:57;;;;;;;21.13;8.48;;;;;;;;;;10524938;28;20043;-77
2022/11/11 20:16:59;;;;;;;20.27;9.10;;;;;;;;;;10527794;28;20044;-77
2022/11/11 20:22:04;;;;;;;16.30;7.13;;;;;;;;;;10527301;28;20036;-78
2022/11/11 20:27:08;;;;;;;56.95;21.48;;;;;;;;;;10521942;28;20024;-76
2022/11/11 20:32:11;;;;;;;29.70;11.38;;;;;;;;;;10524961;28;20059;-75
2022/11/11 20:37:13;;;;;;;23.73;9.93;;;;;;;;;;10521822;28;20046;-77
2022/11/11 20:42:18;;;;;;;18.00;8.63;;;;;;;;;;10517345;28;20051;-76
2022/11/11 20:47:21;;;;;;;17.50;8.50;;;;;;;;;;10514873;28;20040;-76
2022/11/11 20:52:24;;;;;;;19.80;8.70;;;;;;;;;;10517671;28;20120;-76
2022/11/11 20:57:28;;;;;;;26.15;9.95;;;;;;;;;;10519708;28;20040;-78
2022/11/11 21:02:31;;;;;;;;;;;;;;;;;;10519264;28;20039;-77
2022/11/11 21:07:39;;;;;;;26.67;10.43;;;;;;;;;;10517320;28;19928;-77
2022/11/11 21:12:43;;;;;;;45.15;16.38;;;;;;;;;;10517918;28;20048;-76
2022/11/11 21:17:46;;;;;;;31.58;12.48;;;;;;;;;;10519340;28;20454;-76
2022/11/11 21:22:51;;;;;;;36.65;14.52;;;;;;;;;;10522392;28;20093;-76
2022/11/11 21:27:55;;;;;;;26.92;11.48;;;;;;;;;;10507046;28;20331;-78
2022/11/11 21:32:58;;;;;;;25.05;10.60;;;;;;;;;;10512857;28;20511;-77
2022/11/11 21:38:08;;;;;;;29.13;11.30;;;;;;;;;;10510742;28;20047;-76
2022/11/11 21:43:13;;;;;;;29.45;12.38;;;;;;;;;;10519886;28;20040;-75
2022/11/11 21:48:25;;;;;;;29.75;12.20;;;;;;;;;;10514921;28;20519;-76
2022/11/11 21:53:30;;;;;;;25.35;11.05;;;;;;;;;;10509437;28;20044;-77
2022/11/11 21:58:33;;;;;;;;;;;;;;;;;;10503859;28;20265;-77
2022/11/11 22:03:38;;;;;;;24.08;11.23;;;;;;;;;;10529518;28;20300;-77
2022/11/11 22:08:41;;;;;;;25.08;10.60;;;;;;;;;;10530308;28;20042;-76
2022/11/11 22:13:44;;;;;;;25.77;10.95;;;;;;;;;;10525773;28;20319;-75
2022/11/11 22:18:48;;;;;;;23.25;11.23;;;;;;;;;;10527863;28;20044;-76
2022/11/11 22:23:53;;;;;;;46.63;18.50;;;;;;;;;;10523167;28;20428;-76
2022/11/11 22:28:56;;;;;;;24.38;11.10;;;;;;;;;;10522516;28;20059;-76
2022/11/11 22:34:02;;;;;;;22.10;10.30;;;;;;;;;;10500419;28;20053;-76
2022/11/11 22:39:05;;;;;;;27.10;10.88;;;;;;;;;;10526116;28;20036;-75
2022/11/11 22:44:08;;;;;;;24.00;11.43;;;;;;;;;;10522329;28;20117;-76
2022/11/11 22:49:12;;;;;;;29.85;12.40;;;;;;;;;;10519990;28;20036;-75
2022/11/11 22:54:19;;;;;;;23.83;12.23;;;;;;;;;;10527572;28;20055;-75
2022/11/11 22:59:23;;;;;;;30.45;13.45;;;;;;;;;;10511992;28;20113;-74
2022/11/11 23:04:28;;;;;;;32.58;14.10;;;;;;;;;;10528028;28;20123;-76
2022/11/11 23:09:31;;;;;;;28.60;12.68;;;;;;;;;;10525809;28;20242;-75
2022/11/11 23:14:34;;;;;;;25.60;12.13;;;;;;;;;;10526930;28;20036;-75
2022/11/11 23:19:38;;;;;;;28.80;12.43;;;;;;;;;;10538190;28;20143;-76
2022/11/11 23:24:41;;;;;;;27.23;12.20;;;;;;;;;;10521059;28;20121;-74
2022/11/11 23:29:43;;;;;;;33.15;12.70;;;;;;;;;;10525792;28;20036;-75
2022/11/11 23:34:54;;;;;;;80.65;32.00;;;;;;;;;;10513039;28;20128;-76
2022/11/11 23:39:56;;;;;;;29.67;13.55;;;;;;;;;;10517893;28;20040;-75
2022/11/11 23:44:59;;;;;;;32.03;13.13;;;;;;;;;;10525905;28;20044;-75
2022/11/11 23:50:04;;;;;;;30.25;13.90;;;;;;;;;;10522885;28;20047;-75
2022/11/11 23:55:08;;;;;;;32.72;14.88;;;;;;;;;;10524877;28;20032;-76
